Time;durP1;ratioP1;P1;durP2;ratioP2;P2;SDS_P1;SDS_P2;PMS_P1;PMS_P2;Temp;Humidity;BMP_temperature;BMP_pressure;BME280_temperature;BME280_humidity;BME280_pressure;Samples;Min_cycle;Max_cycle;Signal;HPM_P1;HPM_P2
2023/10/15 00:01:50;;;;;;;;;;;;;;;21.84;39.04;100401.75;102576;1293;74679;-82
2023/10/15 00:04:16;;;;;;;;;;;;;;;21.84;39.02;100395.67;102670;1294;61404;-81
2023/10/15 00:06:41;;;;;;;;;;;;;;;21.84;38.95;100397.67;102610;1297;62871;-81
2023/10/15 00:09:07;;;;;;;;;;;;;;;21.84;39.08;100393.91;102589;1297;61381;-81
2023/10/15 00:11:33;;;;;;;;;;;;;;;21.84;39.03;100391.56;102607;1298;61433;-81
2023/10/15 00:14:03;;;;;;;;;;;;;;;21.84;39.04;100390.52;102658;1292;61610;-81
2023/10/15 00:16:29;;;;;;;;;;;;;;;21.84;39.07;100386.74;102614;1297;61427;-83
2023/10/15 00:18:54;;;;;;;;;;;;;;;21.84;39.02;100385.28;102657;1297;61385;-83
2023/10/15 00:21:20;;;;;;;;;;;;;;;21.84;39.07;100380.84;103190;1291;61394;-82
2023/10/15 00:23:47;;;;;;;;;;;;;;;21.84;39.06;100379.39;103283;1287;62334;-82
2023/10/15 00:26:14;;;;;;;;;;;;;;;21.84;38.99;100374.56;103268;1292;61478;-80
2023/10/15 00:28:39;;;;;;;;;;;;;;;21.84;39.00;100373.30;103233;1286;61799;-81
2023/10/15 00:31:11;;;;;;;;;;;;;;;21.84;39.13;100374.21;103211;1286;61386;-83
2023/10/15 00:33:42;;;;;;;;;;;;;;;21.83;39.07;100370.47;103294;1286;61361;-81
2023/10/15 00:36:17;;;;;;;;;;;;;;;21.84;39.04;100369.75;103244;1291;62581;-83
2023/10/15 00:38:46;;;;;;;;;;;;;;;21.84;39.00;100370.28;103235;1292;72408;-81
2023/10/15 00:41:13;;;;;;;;;;;;;;;21.84;39.01;100370.28;103206;1286;75138;-82
2023/10/15 00:43:52;;;;;;;;;;;;;;;21.84;39.05;100374.38;103213;1291;61369;-81
2023/10/15 00:46:18;;;;;;;;;;;;;;;21.83;39.16;100372.96;103307;1286;61407;-83
2023/10/15 00:48:43;;;;;;;;;;;;;;;21.83;39.07;100372.80;103212;1291;61394;-82
2023/10/15 00:51:11;;;;;;;;;;;;;;;21.84;39.13;100373.14;103228;1286;62504;-84
2023/10/15 00:53:49;;;;;;;;;;;;;;;21.84;39.05;100371.52;103260;1291;61326;-83
2023/10/15 00:56:15;;;;;;;;;;;;;;;21.83;39.24;100372.09;103233;1287;61400;-81
2023/10/15 01:01:26;;;;;;;;;;;;;;;21.83;39.02;100365.44;103249;1291;73414;-82
2023/10/15 01:03:59;;;;;;;;;;;;;;;21.83;39.09;100361.18;103162;1286;61299;-82
2023/10/15 01:06:39;;;;;;;;;;;;;;;21.84;39.19;100357.02;103282;1286;61419;-82
2023/10/15 01:09:17;;;;;;;;;;;;;;;21.83;39.15;100354.55;103260;1288;73236;-82
2023/10/15 01:11:51;;;;;;;;;;;;;;;21.84;39.18;100349.30;103248;1288;74417;-82
2023/10/15 01:14:32;;;;;;;;;;;;;;;21.83;39.21;100348.24;103305;1286;61400;-81
2023/10/15 01:16:59;;;;;;;;;;;;;;;21.84;39.17;100347.17;103184;1286;61391;-82
2023/10/15 01:19:31;;;;;;;;;;;;;;;21.83;39.24;100343.98;103229;1291;73382;-82
2023/10/15 01:21:57;;;;;;;;;;;;;;;21.83;39.22;100346.13;103219;1286;74289;-83
2023/10/15 01:24:25;;;;;;;;;;;;;;;21.83;39.07;100342.56;103231;1289;61905;-82
2023/10/15 01:26:59;;;;;;;;;;;;;;;21.83;39.21;100344.88;103279;1286;61365;-81
2023/10/15 01:29:28;;;;;;;;;;;;;;;21.83;39.19;100344.17;103180;1286;73404;-82
2023/10/15 01:32:07;;;;;;;;;;;;;;;21.83;39.27;100342.36;103218;1291;74230;-82
2023/10/15 01:34:37;;;;;;;;;;;;;;;21.83;39.24;100346.52;103272;1291;61288;-82
2023/10/15 01:39:49;;;;;;;;;;;;;;;21.83;39.14;100345.63;103145;1286;71246;-83
2023/10/15 01:44:54;;;;;;;;;;;;;;;21.83;39.19;100349.38;103445;1286;61323;-82
2023/10/15 01:47:29;;;;;;;;;;;;;;;21.82;39.15;100350.85;103199;1286;61335;-83
2023/10/15 01:49:56;;;;;;;;;;;;;;;21.83;39.13;100349.23;103208;1286;72367;-81
2023/10/15 01:52:32;;;;;;;;;;;;;;;21.83;39.17;100344.58;103338;1286;74441;-82
2023/10/15 01:55:03;;;;;;;;;;;;;;;21.83;39.21;100340.81;103213;1291;61375;-83
2023/10/15 01:57:29;;;;;;;;;;;;;;;21.82;39.21;100335.48;103136;1286;61256;-82
2023/10/15 02:00:03;;;;;;;;;;;;;;;21.82;39.15;100332.10;103243;1286;61445;-82
2023/10/15 02:02:30;;;;;;;;;;;;;;;21.82;39.06;100331.50;103235;1286;75029;-83
2023/10/15 02:04:57;;;;;;;;;;;;;;;21.82;39.15;100329.55;103209;1292;62442;-81
2023/10/15 02:07:22;;;;;;;;;;;;;;;21.82;39.12;100323.84;103206;1286;61370;-82
2023/10/15 02:09:48;;;;;;;;;;;;;;;21.82;39.03;100322.42;103307;1286;61381;-82
2023/10/15 02:12:14;;;;;;;;;;;;;;;21.82;39.07;100323.84;103225;1291;61645;-80
2023/10/15 02:14:44;;;;;;;;;;;;;;;21.82;39.14;100322.59;103130;1294;61317;-81
2023/10/15 02:17:13;;;;;;;;;;;;;;;21.82;39.02;100325.81;103280;1288;61355;-83
2023/10/15 02:19:41;;;;;;;;;;;;;;;21.82;39.14;100324.59;103239;1286;72557;-83
2023/10/15 02:22:07;;;;;;;;;;;;;;;21.81;39.07;100324.08;102990;1286;311536;-82
2023/10/15 02:24:34;;;;;;;;;;;;;;;21.82;39.13;100321.00;103179;1291;61406;-83
2023/10/15 02:27:05;;;;;;;;;;;;;;;21.81;39.17;100317.28;103312;1291;62457;-82
2023/10/15 02:32:07;;;;;;;;;;;;;;;21.81;39.15;100318.02;103212;1286;75186;-86
2023/10/15 02:34:50;;;;;;;;;;;;;;;;;;;;;
2023/10/15 02:37:18;;;;;;;;;;;;;;;21.81;39.08;100320.17;103307;1286;62058;-82
2023/10/15 02:39:50;;;;;;;;;;;;;;;21.81;39.08;100321.25;103192;1286;72422;-82
2023/10/15 02:42:19;;;;;;;;;;;;;;;21.81;39.22;100319.98;103266;1291;61714;-81
2023/10/15 02:44:45;;;;;;;;;;;;;;;21.81;39.20;100318.55;103239;1291;62989;-81
2023/10/15 02:50:01;;;;;;;;;;;;;;;21.81;39.23;100312.84;103216;1291;71495;-82
2023/10/15 02:52:42;;;;;;;;;;;;;;;21.81;39.21;100315.52;103273;1286;74459;-83
2023/10/15 02:55:13;;;;;;;;;;;;;;;21.81;39.14;100318.22;103233;1286;61374;-83
2023/10/15 02:57:40;;;;;;;;;;;;;;;21.80;39.16;100312.52;103221;1286;61289;-82
2023/10/15 03:00:13;;;;;;;;;;;;;;;21.81;39.19;100308.20;103271;1286;61371;-83
2023/10/15 03:02:43;;;;;;;;;;;;;;;21.80;39.24;100302.85;103209;1286;74224;-82
2023/10/15 03:05:13;;;;;;;;;;;;;;;21.80;39.17;100305.90;103209;1286;61324;-81
2023/10/15 03:07:42;;;;;;;;;;;;;;;21.80;39.14;100302.31;103235;1286;62414;-86
2023/10/15 03:10:21;;;;;;;;;;;;;;;21.80;39.11;100312.52;103278;1287;72300;-81
2023/10/15 03:12:47;;;;;;;;;;;;;;;21.80;39.22;100305.37;103190;1286;75364;-83
2023/10/15 03:15:20;;;;;;;;;;;;;;;21.80;39.21;100303.39;103238;1288;62021;-82
2023/10/15 03:17:46;;;;;;;;;;;;;;;21.80;39.10;100298.40;103270;1286;61358;-83
2023/10/15 03:23:05;;;;;;;;;;;;;;;21.80;39.18;100294.82;102554;1296;74511;-82
2023/10/15 03:25:34;;;;;;;;;;;;;;;21.80;39.22;100291.59;102628;1297;61344;-83
2023/10/15 03:28:00;;;;;;;;;;;;;;;21.80;39.20;100290.88;102646;1292;62480;-83
2023/10/15 03:30:28;;;;;;;;;;;;;;;21.80;39.27;100293.73;102644;1292;61478;-82
2023/10/15 03:33:00;;;;;;;;;;;;;;;21.80;39.21;100290.89;102631;1297;74527;-81
2023/10/15 03:35:39;;;;;;;;;;;;;;;21.80;39.18;100284.80;102670;1292;62615;-83
2023/10/15 03:38:34;;;;;;;;;;;;;;;;;;;;;
2023/10/15 03:41:11;;;;;;;;;;;;;;;21.79;39.28;100281.98;102641;1296;72520;-82
2023/10/15 03:43:36;;;;;;;;;;;;;;;21.79;39.23;100287.88;102539;1295;74377;-82
2023/10/15 03:46:17;;;;;;;;;;;;;;;21.79;39.18;100281.40;102501;1297;62486;-82
2023/10/15 03:48:47;;;;;;;;;;;;;;;21.79;39.15;100277.33;102642;1292;61404;-81
2023/10/15 03:51:20;;;;;;;;;;;;;;;21.80;39.21;100275.17;102582;1297;73056;-82
2023/10/15 03:53:49;;;;;;;;;;;;;;;21.79;39.11;100275.19;102662;1296;74274;-82
2023/10/15 03:56:18;;;;;;;;;;;;;;;21.79;39.24;100271.94;102687;1294;61341;-82
2023/10/15 03:58:43;;;;;;;;;;;;;;;21.79;39.14;100270.89;102924;1294;62859;-81
2023/10/15 04:03:35;;;;;;;;;;;;;;;21.79;39.28;100267.65;103194;1286;61402;-84
2023/10/15 04:06:01;;;;;;;;;;;;;;;21.79;39.22;100268.73;103236;1291;61368;-82
2023/10/15 04:08:31;;;;;;;;;;;;;;;21.79;39.20;100264.27;103276;1286;61475;-82
2023/10/15 04:11:00;;;;;;;;;;;;;;;21.79;39.13;100262.52;103203;1286;72757;-82
2023/10/15 04:13:26;;;;;;;;;;;;;;;21.78;39.14;100257.90;103256;1291;74278;-82
2023/10/15 04:15:56;;;;;;;;;;;;;;;21.78;39.10;100255.02;103264;1286;61384;-83
2023/10/15 04:18:24;;;;;;;;;;;;;;;21.78;39.10;100254.84;103223;1288;61410;-83
2023/10/15 04:20:51;;;;;;;;;;;;;;;21.78;39.18;100255.05;103245;1286;72576;-83
2023/10/15 04:23:33;;;;;;;;;;;;;;;21.77;39.20;100252.75;103228;1286;62466;-82
2023/10/15 04:26:09;;;;;;;;;;;;;;;21.78;39.20;100246.84;103247;1286;61343;-82
2023/10/15 04:28:36;;;;;;;;;;;;;;;21.78;39.16;100242.00;103229;1286;61266;-81
2023/10/15 04:31:09;;;;;;;;;;;;;;;21.77;39.20;100236.28;103224;1287;72455;-83
2023/10/15 04:33:35;;;;;;;;;;;;;;;21.77;39.14;100240.23;103230;1286;74371;-82
2023/10/15 04:36:01;;;;;;;;;;;;;;;21.77;39.31;100240.58;103265;1290;61462;-81
2023/10/15 04:38:30;;;;;;;;;;;;;;;21.77;39.22;100245.41;103273;1286;61724;-82
2023/10/15 04:41:00;;;;;;;;;;;;;;;21.78;39.13;100246.30;103099;1286;72398;-81
2023/10/15 04:43:29;;;;;;;;;;;;;;;21.76;39.15;100251.91;103280;1291;74267;-81
2023/10/15 04:45:56;;;;;;;;;;;;;;;21.77;39.16;100246.34;103299;1286;61291;-82
2023/10/15 04:48:29;;;;;;;;;;;;;;;21.77;39.23;100241.48;103210;1286;61300;-83
2023/10/15 04:50:56;;;;;;;;;;;;;;;21.77;39.27;100239.16;103268;1286;72553;-82
2023/10/15 04:55:47;;;;;;;;;;;;;;;21.77;39.23;100245.95;103304;1286;62262;-82
2023/10/15 04:58:13;;;;;;;;;;;;;;;21.77;39.16;100249.37;103248;1289;61383;-83
2023/10/15 05:00:41;;;;;;;;;;;;;;;21.77;39.25;100246.13;103274;1286;61829;-82
2023/10/15 05:03:07;;;;;;;;;;;;;;;21.77;39.20;100245.79;103210;1286;62471;-81
2023/10/15 05:05:34;;;;;;;;;;;;;;;21.77;39.16;100247.93;103258;1286;61320;-82
2023/10/15 05:08:02;;;;;;;;;;;;;;;21.78;39.13;100246.83;103107;1289;61398;-81
2023/10/15 05:10:38;;;;;;;;;;;;;;;21.77;39.19;100246.49;103238;1286;73676;-82
2023/10/15 05:13:04;;;;;;;;;;;;;;;21.78;39.23;100245.77;103324;1286;75311;-81
2023/10/15 05:15:29;;;;;;;;;;;;;;;21.77;39.06;100245.95;103298;1289;62337;-82
2023/10/15 05:17:55;;;;;;;;;;;;;;;21.77;39.18;100247.20;103226;1286;61972;-81
2023/10/15 05:20:20;;;;;;;;;;;;;;;21.78;39.15;100252.70;103236;1291;61404;-83
2023/10/15 05:22:49;;;;;;;;;;;;;;;21.78;39.18;100250.71;103296;1291;61396;-83
2023/10/15 05:25:40;;;;;;;;;;;;;;;21.78;39.14;100253.77;103089;1286;74545;-81
2023/10/15 05:28:06;;;;;;;;;;;;;;;21.78;39.15;100253.07;102597;1297;61513;-82
2023/10/15 05:31:00;;;;;;;;;;;;;;;21.79;39.27;100250.48;102637;1295;62371;-82
2023/10/15 05:33:27;;;;;;;;;;;;;;;21.79;39.17;100253.92;102189;1299;72561;-82
2023/10/15 05:36:17;;;;;;;;;;;;;;;21.78;39.17;100257.34;102148;1301;74505;-83
2023/10/15 05:38:43;;;;;;;;;;;;;;;21.79;39.18;100255.66;101703;1306;62521;-82
2023/10/15 05:41:09;;;;;;;;;;;;;;;21.80;39.19;100257.98;101411;1311;61368;-81
2023/10/15 05:43:34;;;;;;;;;;;;;;;21.79;39.18;100261.02;101466;1306;61675;-84
2023/10/15 05:46:01;;;;;;;;;;;;;;;21.79;39.13;100255.81;101454;1311;61543;-83
2023/10/15 05:48:27;;;;;;;;;;;;;;;21.80;39.23;100256.33;101774;1312;61676;-81
2023/10/15 05:50:53;;;;;;;;;;;;;;;21.79;39.15;100252.95;101707;1308;61415;-81
2023/10/15 05:53:19;;;;;;;;;;;;;;;21.79;39.18;100256.20;101725;1311;61521;-83
2023/10/15 05:55:44;;;;;;;;;;;;;;;21.80;39.28;100257.23;101719;1306;61480;-82
2023/10/15 05:58:11;;;;;;;;;;;;;;;21.80;39.22;100255.96;101406;1306;74420;-81
2023/10/15 06:00:39;;;;;;;;;;;;;;;21.79;39.16;100259.58;101469;1306;61427;-82
2023/10/15 06:03:07;;;;;;;;;;;;;;;21.79;39.20;100260.98;101475;1307;61469;-82
2023/10/15 06:05:33;;;;;;;;;;;;;;;21.80;39.25;100260.83;101784;1308;73468;-82
2023/10/15 06:07:59;;;;;;;;;;;;;;;21.80;39.19;100260.83;101805;1309;61463;-82
2023/10/15 06:10:24;;;;;;;;;;;;;;;21.80;39.20;100263.31;102142;1295;62196;-81
2023/10/15 06:12:50;;;;;;;;;;;;;;;21.80;39.08;100267.23;102609;1300;61555;-81
2023/10/15 06:15:15;;;;;;;;;;;;;;;21.80;39.16;100269.42;102362;1295;61370;-81
2023/10/15 06:17:42;;;;;;;;;;;;;;;21.79;39.12;100269.25;103317;1288;72686;-81
2023/10/15 06:20:13;;;;;;;;;;;;;;;21.80;39.10;100267.96;103310;1286;74354;-83
2023/10/15 06:22:40;;;;;;;;;;;;;;;21.80;39.17;100259.21;103194;1286;61597;-83
2023/10/15 06:25:08;;;;;;;;;;;;;;;21.80;39.15;100268.33;103288;1288;61289;-82
2023/10/15 06:27:35;;;;;;;;;;;;;;;21.79;39.17;100266.77;103213;1288;72479;-82
2023/10/15 06:30:05;;;;;;;;;;;;;;;21.80;39.08;100264.92;103282;1286;75657;-81
2023/10/15 06:32:31;;;;;;;;;;;;;;;21.80;39.11;100269.60;103345;1286;61381;-81
2023/10/15 06:34:57;;;;;;;;;;;;;;;21.80;39.20;100272.96;103243;1291;61320;-83
2023/10/15 06:37:23;;;;;;;;;;;;;;;21.80;39.16;100271.90;103395;1288;61384;-82
2023/10/15 06:39:48;;;;;;;;;;;;;;;21.80;39.14;100270.09;103255;1286;61480;-82
2023/10/15 06:42:14;;;;;;;;;;;;;;;21.80;39.25;100278.19;103220;1286;61813;-80
2023/10/15 06:44:39;;;;;;;;;;;;;;;21.80;39.12;100278.70;103341;1286;61458;-81
2023/10/15 06:47:05;;;;;;;;;;;;;;;21.80;39.23;100275.81;103267;1286;61300;-81
2023/10/15 06:49:30;;;;;;;;;;;;;;;21.80;39.16;100279.23;103218;1291;61403;-81
2023/10/15 06:51:56;;;;;;;;;;;;;;;21.80;39.16;100268.86;103326;1286;61474;-81
2023/10/15 06:54:22;;;;;;;;;;;;;;;21.80;39.23;100261.52;103269;1286;61432;-81
2023/10/15 06:57:11;;;;;;;;;;;;;;;21.80;39.32;100263.34;103300;1286;61390;-81
2023/10/15 06:59:37;;;;;;;;;;;;;;;21.80;39.08;100263.61;102636;1295;72330;-82
2023/10/15 07:02:03;;;;;;;;;;;;;;;21.80;39.17;100260.23;102640;1297;61491;-82
2023/10/15 07:04:29;;;;;;;;;;;;;;;21.80;39.16;100259.86;102714;1292;61934;-82
2023/10/15 07:06:55;;;;;;;;;;;;;;;21.81;39.20;100254.10;102645;1292;61296;-81
2023/10/15 07:09:20;;;;;;;;;;;;;;;21.80;39.14;100249.99;102666;1295;61404;-83
2023/10/15 07:11:46;;;;;;;;;;;;;;;21.81;39.13;100251.04;102722;1295;61302;-82
2023/10/15 07:14:11;;;;;;;;;;;;;;;21.81;39.16;100247.44;102640;1297;74323;-82
2023/10/15 07:16:40;;;;;;;;;;;;;;;21.81;39.18;100243.49;102597;1292;61552;-83
2023/10/15 07:19:06;;;;;;;;;;;;;;;21.81;39.22;100239.71;102676;1295;61305;-82
2023/10/15 07:21:32;;;;;;;;;;;;;;;21.81;39.18;100234.69;102648;1292;61911;-83
2023/10/15 07:23:58;;;;;;;;;;;;;;;21.82;39.22;100235.36;102578;1295;61483;-84
2023/10/15 07:26:24;;;;;;;;;;;;;;;21.82;39.22;100229.26;102704;1295;61431;-82
2023/10/15 07:28:50;;;;;;;;;;;;;;;21.82;39.26;100229.06;102633;1293;61873;-81
2023/10/15 07:31:15;;;;;;;;;;;;;;;21.83;39.16;100228.13;102626;1297;61359;-82
2023/10/15 07:33:40;;;;;;;;;;;;;;;21.83;39.27;100233.48;102662;1295;62388;-82
2023/10/15 07:36:07;;;;;;;;;;;;;;;21.83;39.26;100233.30;102695;1295;61401;-81
2023/10/15 07:38:33;;;;;;;;;;;;;;;21.83;39.29;100233.44;103304;1292;62601;-82
2023/10/15 07:41:00;;;;;;;;;;;;;;;21.84;39.36;100232.52;103309;1286;62421;-82
2023/10/15 07:43:25;;;;;;;;;;;;;;;21.84;39.30;100230.34;103129;1292;61358;-82
2023/10/15 07:45:51;;;;;;;;;;;;;;;21.84;39.26;100234.09;103271;1286;61406;-83
2023/10/15 07:48:16;;;;;;;;;;;;;;;21.85;39.28;100232.63;103291;1286;61383;-81
2023/10/15 07:50:45;;;;;;;;;;;;;;;21.86;39.42;100235.25;103313;1291;61399;-82
2023/10/15 07:53:10;;;;;;;;;;;;;;;21.85;39.26;100230.26;103139;1289;61485;-83
2023/10/15 07:55:36;;;;;;;;;;;;;;;21.86;39.35;100233.23;103261;1286;62544;-83
2023/10/15 07:58:01;;;;;;;;;;;;;;;21.86;39.33;100228.04;103191;1286;62066;-83
2023/10/15 08:00:29;;;;;;;;;;;;;;;21.86;39.53;100222.10;103245;1291;61397;-82
2023/10/15 08:02:58;;;;;;;;;;;;;;;21.87;39.30;100220.81;103225;1286;62450;-83
2023/10/15 08:05:27;;;;;;;;;;;;;;;21.88;39.38;100220.88;103294;1286;72303;-82
2023/10/15 08:07:52;;;;;;;;;;;;;;;21.88;39.35;100221.20;103200;1286;74562;-81
2023/10/15 08:10:20;;;;;;;;;;;;;;;21.88;39.40;100219.77;103240;1286;61346;-83
2023/10/15 08:12:49;;;;;;;;;;;;;;;21.89;39.49;100212.36;103301;1286;61371;-81
2023/10/15 08:15:15;;;;;;;;;;;;;;;21.89;39.39;100201.79;103278;1286;72257;-81
2023/10/15 08:17:41;;;;;;;;;;;;;;;21.90;39.45;100203.69;103276;1286;61387;-85
2023/10/15 08:20:09;;;;;;;;;;;;;;;21.90;39.38;100207.80;103290;1286;61394;-81
2023/10/15 08:22:35;;;;;;;;;;;;;;;21.91;39.38;100206.67;103162;1289;61317;-82
2023/10/15 08:25:00;;;;;;;;;;;;;;;21.91;39.41;100202.87;103083;1289;61374;-83
2023/10/15 08:27:26;;;;;;;;;;;;;;;21.91;39.44;100201.05;103119;1289;61972;-83
2023/10/15 08:29:51;;;;;;;;;;;;;;;21.92;39.30;100193.10;103109;1294;61416;-82
2023/10/15 08:32:17;;;;;;;;;;;;;;;21.92;39.49;100195.05;103121;1289;61465;-82
2023/10/15 08:34:44;;;;;;;;;;;;;;;21.93;39.35;100188.05;102973;1288;61509;-83
2023/10/15 08:37:10;;;;;;;;;;;;;;;21.93;39.47;100192.35;103036;1289;72460;-81
2023/10/15 08:39:38;;;;;;;;;;;;;;;21.93;39.30;100191.95;103144;1293;61531;-82
2023/10/15 08:42:11;;;;;;;;;;;;;;;21.95;39.39;100187.73;103136;1289;61403;-82
2023/10/15 08:44:37;;;;;;;;;;;;;;;21.95;39.48;100190.55;103087;1289;62495;-82
2023/10/15 08:47:04;;;;;;;;;;;;;;;21.96;39.42;100191.23;103105;1289;63319;-82
2023/10/15 08:49:31;;;;;;;;;;;;;;;21.96;39.41;100189.59;103186;1289;74643;-81
2023/10/15 08:51:57;;;;;;;;;;;;;;;21.97;39.46;100185.23;103189;1289;61977;-81
2023/10/15 08:54:25;;;;;;;;;;;;;;;21.97;39.51;100179.44;102967;1293;61446;-84
2023/10/15 08:56:54;;;;;;;;;;;;;;;21.98;39.36;100180.27;103354;1287;72120;-81
2023/10/15 08:59:22;;;;;;;;;;;;;;;21.98;39.48;100176.66;103008;1288;74303;-83
2023/10/15 09:01:52;;;;;;;;;;;;;;;21.99;39.39;100178.09;103082;1292;61302;-81
2023/10/15 09:04:18;;;;;;;;;;;;;;;21.99;39.45;100172.27;103199;1288;62424;-82
2023/10/15 09:06:47;;;;;;;;;;;;;;;22.00;39.39;100164.33;103198;1293;61690;-82
2023/10/15 09:09:14;;;;;;;;;;;;;;;22.01;39.33;100162.64;103173;1288;74457;-84
2023/10/15 09:11:42;;;;;;;;;;;;;;;22.01;39.54;100158.65;103095;1289;62025;-82
2023/10/15 09:14:13;;;;;;;;;;;;;;;22.02;39.33;100157.69;103062;1288;62626;-82
2023/10/15 09:16:48;;;;;;;;;;;;;;;22.03;39.39;100160.16;103221;1288;72868;-83
2023/10/15 09:19:14;;;;;;;;;;;;;;;22.04;39.35;100156.69;103032;1293;74431;-81
2023/10/15 09:21:39;;;;;;;;;;;;;;;22.04;39.42;100149.30;103033;1288;61782;-82
2023/10/15 09:24:06;;;;;;;;;;;;;;;22.04;39.41;100146.25;103252;1293;61305;-82
2023/10/15 09:26:31;;;;;;;;;;;;;;;22.04;39.48;100146.94;103103;1288;61341;-82
2023/10/15 09:28:57;;;;;;;;;;;;;;;22.05;39.41;100143.27;103053;1288;62340;-82
2023/10/15 09:31:25;;;;;;;;;;;;;;;22.05;39.45;100141.48;102820;1288;61430;-83
2023/10/15 09:33:51;;;;;;;;;;;;;;;22.06;39.42;100142.30;103138;1288;62595;-81
2023/10/15 09:36:17;;;;;;;;;;;;;;;22.06;39.42;100140.48;102818;1288;61421;-82
2023/10/15 09:38:45;;;;;;;;;;;;;;;22.06;39.45;100136.00;103084;1288;61454;-83
2023/10/15 09:41:12;;;;;;;;;;;;;;;22.07;39.44;100133.05;103188;1287;61986;-82
2023/10/15 09:43:38;;;;;;;;;;;;;;;22.08;39.34;100131.05;103164;1289;61370;-83
2023/10/15 09:46:05;;;;;;;;;;;;;;;22.08;39.31;100132.09;103085;1292;61965;-81
2023/10/15 09:48:33;;;;;;;;;;;;;;;22.08;39.32;100127.98;103151;1293;61388;-83
2023/10/15 09:50:59;;;;;;;;;;;;;;;22.09;39.35;100127.22;103200;1288;61785;-82
2023/10/15 09:53:27;;;;;;;;;;;;;;;22.09;39.34;100127.02;103197;1287;61449;-82
2023/10/15 09:55:53;;;;;;;;;;;;;;;22.10;39.30;100126.36;103076;1288;72594;-82
2023/10/15 09:58:18;;;;;;;;;;;;;;;22.10;39.37;100115.59;103031;1293;61324;-83
2023/10/15 10:00:59;;;;;;;;;;;;;;;22.10;39.33;100111.11;103144;1288;61561;-82
2023/10/15 10:03:37;;;;;;;;;;;;;;;22.10;39.27;100102.68;103055;1288;62471;-81
2023/10/15 10:06:11;;;;;;;;;;;;;;;22.11;39.32;100098.72;103228;1287;72636;-82
2023/10/15 10:08:43;;;;;;;;;;;;;;;22.11;39.30;100097.27;103146;1289;75425;-83
2023/10/15 10:11:15;;;;;;;;;;;;;;;22.12;39.29;100092.77;103218;1287;61384;-81
2023/10/15 10:13:55;;;;;;;;;;;;;;;22.12;39.31;100086.80;103193;1288;61373;-82
2023/10/15 10:16:25;;;;;;;;;;;;;;;22.11;39.21;100080.23;103176;1288;72837;-83
2023/10/15 10:18:50;;;;;;;;;;;;;;;22.11;39.31;100079.35;103086;1288;75782;-81
2023/10/15 10:21:16;;;;;;;;;;;;;;;22.12;39.37;100075.38;103194;1288;61382;-81
2023/10/15 10:23:50;;;;;;;;;;;;;;;22.11;39.25;100072.90;103059;1288;62334;-82
2023/10/15 10:26:16;;;;;;;;;;;;;;;22.12;39.19;100071.45;103145;1293;73774;-82
2023/10/15 10:28:41;;;;;;;;;;;;;;;22.11;39.30;100068.61;103104;1288;61261;-82
2023/10/15 10:31:07;;;;;;;;;;;;;;;22.11;39.30;100069.51;103068;1292;62554;-81
2023/10/15 10:33:44;;;;;;;;;;;;;;;22.11;39.20;100065.22;103192;1288;61325;-83
2023/10/15 10:36:13;;;;;;;;;;;;;;;22.11;39.22;100062.34;103184;1288;72398;-83
2023/10/15 10:38:39;;;;;;;;;;;;;;;22.11;39.30;100059.27;103209;1288;74155;-83
2023/10/15 10:41:07;;;;;;;;;;;;;;;22.10;39.31;100051.98;103080;1288;61380;-82
2023/10/15 10:43:33;;;;;;;;;;;;;;;22.10;39.24;100050.41;103112;1288;61427;-83
2023/10/15 10:46:02;;;;;;;;;;;;;;;22.10;39.19;100046.47;103109;1288;61488;-81
2023/10/15 10:48:28;;;;;;;;;;;;;;;22.10;39.27;100046.84;103064;1288;75509;-83
2023/10/15 10:51:23;;;;;;;;;;;;;;;22.09;39.18;100046.01;103087;1287;61482;-83
2023/10/15 10:53:57;;;;;;;;;;;;;;;22.08;39.23;100042.27;103159;1288;61292;-83
2023/10/15 10:56:24;;;;;;;;;;;;;;;22.09;39.20;100040.66;103190;1288;72475;-83
2023/10/15 10:58:52;;;;;;;;;;;;;;;22.08;39.31;100039.23;103025;1293;61806;-83
2023/10/15 11:01:19;;;;;;;;;;;;;;;22.08;39.31;100036.05;103070;1291;61509;-82
2023/10/15 11:03:45;;;;;;;;;;;;;;;22.08;39.31;100037.69;103074;1291;62880;-82
2023/10/15 11:06:11;;;;;;;;;;;;;;;22.08;39.24;100031.98;103341;1288;61313;-81
2023/10/15 11:08:36;;;;;;;;;;;;;;;22.07;39.17;100028.97;103269;1288;61391;-82
2023/10/15 11:11:02;;;;;;;;;;;;;;;22.07;39.20;100028.59;103256;1293;61421;-81
2023/10/15 11:13:28;;;;;;;;;;;;;;;22.07;39.14;100023.27;103253;1288;61381;-82
2023/10/15 11:15:53;;;;;;;;;;;;;;;22.07;39.19;100024.73;103155;1291;61375;-83
2023/10/15 11:18:26;;;;;;;;;;;;;;;22.07;39.18;100022.57;103081;1288;72282;-82
2023/10/15 11:20:52;;;;;;;;;;;;;;;22.07;39.13;100015.92;103091;1292;61378;-81
2023/10/15 11:23:18;;;;;;;;;;;;;;;22.06;39.19;100013.44;103184;1288;61403;-82
2023/10/15 11:25:44;;;;;;;;;;;;;;;22.06;39.16;100008.97;103343;1292;61408;-82
2023/10/15 11:28:12;;;;;;;;;;;;;;;22.06;39.10;100006.16;103148;1288;61478;-82
2023/10/15 11:30:41;;;;;;;;;;;;;;;22.06;39.17;100004.17;103059;1288;61463;-82
2023/10/15 11:33:09;;;;;;;;;;;;;;;22.06;39.16;100001.07;103111;1293;61344;-82
2023/10/15 11:35:34;;;;;;;;;;;;;;;22.06;39.24;100001.64;103224;1288;61384;-81
2023/10/15 11:38:08;;;;;;;;;;;;;;;22.07;39.09;99999.09;103196;1288;62601;-83
2023/10/15 11:40:45;;;;;;;;;;;;;;;22.07;39.17;99995.27;103120;1288;75423;-83
2023/10/15 11:43:17;;;;;;;;;;;;;;;22.08;39.13;99993.80;103170;1288;61381;-83
2023/10/15 11:45:43;;;;;;;;;;;;;;;22.08;39.15;99994.85;103195;1288;61402;-83
2023/10/15 11:48:13;;;;;;;;;;;;;;;22.08;39.17;99989.45;103163;1292;61301;-81
2023/10/15 11:50:40;;;;;;;;;;;;;;;22.08;39.17;99991.04;103079;1290;75880;-82
2023/10/15 11:53:18;;;;;;;;;;;;;;;22.09;39.21;99984.53;103355;1291;63339;-82
2023/10/15 11:55:47;;;;;;;;;;;;;;;22.10;39.22;99980.52;103452;1291;61291;-81
2023/10/15 11:58:16;;;;;;;;;;;;;;;22.12;39.23;99978.43;102972;1293;72495;-81
2023/10/15 12:00:42;;;;;;;;;;;;;;;22.12;39.12;99975.20;103232;1291;75582;-81
2023/10/15 12:03:09;;;;;;;;;;;;;;;22.13;39.20;99970.97;102947;1291;61812;-82
2023/10/15 12:05:37;;;;;;;;;;;;;;;22.14;39.24;99967.66;103339;1291;61382;-82
2023/10/15 12:08:04;;;;;;;;;;;;;;;22.15;39.06;99964.52;103144;1291;72433;-83
2023/10/15 12:10:30;;;;;;;;;;;;;;;22.15;39.19;99962.31;102780;1292;61337;-82
2023/10/15 12:12:56;;;;;;;;;;;;;;;22.16;39.09;99956.52;102770;1291;61400;-81
2023/10/15 12:15:21;;;;;;;;;;;;;;;22.17;39.04;99956.82;102767;1291;61482;-84
2023/10/15 12:17:47;;;;;;;;;;;;;;;22.18;39.02;99959.58;102731;1291;61357;-82
2023/10/15 12:20:13;;;;;;;;;;;;;;;22.18;39.09;99958.12;102780;1291;61385;-82
2023/10/15 12:22:39;;;;;;;;;;;;;;;22.19;39.02;99956.95;102852;1289;75587;-81
2023/10/15 12:25:06;;;;;;;;;;;;;;;22.20;39.07;99954.40;102813;1293;61438;-84
2023/10/15 12:27:32;;;;;;;;;;;;;;;22.21;39.02;99958.39;103082;1291;61306;-84
2023/10/15 12:29:57;;;;;;;;;;;;;;;22.21;39.04;99951.94;102832;1291;61491;-81
2023/10/15 12:32:24;;;;;;;;;;;;;;;22.22;39.08;99950.25;102809;1296;61524;-84
2023/10/15 12:34:50;;;;;;;;;;;;;;;22.22;39.07;99950.60;103117;1291;61390;-84
2023/10/15 12:37:15;;;;;;;;;;;;;;;22.23;39.00;99952.28;103098;1291;61962;-81
2023/10/15 12:39:43;;;;;;;;;;;;;;;22.23;39.08;99949.73;102759;1289;61367;-84
2023/10/15 12:42:10;;;;;;;;;;;;;;;22.24;39.03;99951.52;102822;1293;62686;-83
2023/10/15 12:44:39;;;;;;;;;;;;;;;22.24;38.96;99948.08;102825;1291;61306;-83
2023/10/15 12:47:04;;;;;;;;;;;;;;;22.25;39.00;99950.71;103113;1290;61381;-81
2023/10/15 12:49:30;;;;;;;;;;;;;;;22.25;38.94;99948.33;102791;1291;61392;-81
2023/10/15 12:51:58;;;;;;;;;;;;;;;22.25;38.96;99941.85;102743;1293;61542;-81
2023/10/15 12:54:24;;;;;;;;;;;;;;;22.26;38.92;99944.11;102929;1291;61833;-82
2023/10/15 12:56:49;;;;;;;;;;;;;;;22.26;39.02;99940.89;102802;1291;61374;-82
2023/10/15 12:59:15;;;;;;;;;;;;;;;22.26;38.89;99938.02;103231;1293;61508;-80